sensor_id;sensor_type;location;lat;lon;timestamp;pressure;altitude;pressure_sealevel;temperature;humidity
30516;BME280;17297;54.022;10.760;2023-05-07T00:00:08;102238.09;;;11.20;76.36
30516;BME280;17297;54.022;10.760;2023-05-07T00:02:35;102245.16;;;11.21;76.42
30516;BME280;17297;54.022;10.760;2023-05-07T00:05:01;102238.09;;;11.20;76.19
30516;BME280;17297;54.022;10.760;2023-05-07T00:07:27;102238.94;;;11.21;76.34
30516;BME280;17297;54.022;10.760;2023-05-07T00:09:53;102238.63;;;11.24;76.38
30516;BME280;17297;54.022;10.760;2023-05-07T00:12:18;102244.00;;;11.24;76.19
30516;BME280;17297;54.022;10.760;2023-05-07T00:14:43;102242.16;;;11.24;75.95
30516;BME280;17297;54.022;10.760;2023-05-07T00:17:09;102247.53;;;11.24;75.99
30516;BME280;17297;54.022;10.760;2023-05-07T00:19:34;102251.09;;;11.25;75.79
30516;BME280;17297;54.022;10.760;2023-05-07T00:21:59;102247.53;;;11.24;75.78
30516;BME280;17297;54.022;10.760;2023-05-07T00:24:25;102250.09;;;11.26;75.98
30516;BME280;17297;54.022;10.760;2023-05-07T00:26:50;102244.00;;;11.24;75.69
30516;BME280;17297;54.022;10.760;2023-05-07T00:29:16;102241.63;;;11.21;75.64
30516;BME280;17297;54.022;10.760;2023-05-07T00:31:41;102236.09;;;11.22;75.58
30516;BME280;17297;54.022;10.760;2023-05-07T00:34:06;102239.78;;;11.21;75.59
30516;BME280;17297;54.022;10.760;2023-05-07T00:36:32;102243.13;;;11.15;75.20
30516;BME280;17297;54.022;10.760;2023-05-07T00:39:00;102243.28;;;11.14;75.35
30516;BME280;17297;54.022;10.760;2023-05-07T00:41:27;102248.16;;;11.10;75.52
30516;BME280;17297;54.022;10.760;2023-05-07T00:43:52;102248.16;;;11.10;75.24
30516;BME280;17297;54.022;10.760;2023-05-07T00:46:20;102246.16;;;11.12;75.28
30516;BME280;17297;54.022;10.760;2023-05-07T00:48:46;102258.09;;;11.09;75.27
30516;BME280;17297;54.022;10.760;2023-05-07T00:51:11;102245.28;;;11.12;75.05
30516;BME280;17297;54.022;10.760;2023-05-07T00:53:37;102255.91;;;11.13;75.08
30516;BME280;17297;54.022;10.760;2023-05-07T00:56:03;102246.00;;;11.14;75.29
30516;BME280;17297;54.022;10.760;2023-05-07T00:58:29;102255.75;;;11.15;75.38
30516;BME280;17297;54.022;10.760;2023-05-07T01:00:55;102247.53;;;11.16;75.30
30516;BME280;17297;54.022;10.760;2023-05-07T01:03:20;102242.13;;;11.16;75.09
30516;BME280;17297;54.022;10.760;2023-05-07T01:05:47;102244.66;;;11.18;74.95
30516;BME280;17297;54.022;10.760;2023-05-07T01:08:14;102240.09;;;11.18;75.12
30516;BME280;17297;54.022;10.760;2023-05-07T01:10:40;102243.66;;;11.19;74.76
30516;BME280;17297;54.022;10.760;2023-05-07T01:13:09;102242.66;;;11.20;74.96
30516;BME280;17297;54.022;10.760;2023-05-07T01:15:35;102244.50;;;11.19;74.67
30516;BME280;17297;54.022;10.760;2023-05-07T01:18:01;102241.81;;;11.19;74.61
30516;BME280;17297;54.022;10.760;2023-05-07T01:20:32;102239.78;;;11.21;74.65
30516;BME280;17297;54.022;10.760;2023-05-07T01:22:59;102228.34;;;11.19;74.74
30516;BME280;17297;54.022;10.760;2023-05-07T01:25:25;102233.56;;;11.21;74.60
30516;BME280;17297;54.022;10.760;2023-05-07T01:27:54;102231.56;;;11.23;74.56
30516;BME280;17297;54.022;10.760;2023-05-07T01:30:24;102231.56;;;11.23;74.51
30516;BME280;17297;54.022;10.760;2023-05-07T01:33:04;102220.78;;;11.23;74.46
30516;BME280;17297;54.022;10.760;2023-05-07T01:35:39;102243.03;;;11.25;74.73
30516;BME280;17297;54.022;10.760;2023-05-07T01:38:06;102230.53;;;11.24;74.39
30516;BME280;17297;54.022;10.760;2023-05-07T01:40:32;102233.94;;;11.26;74.64
30516;BME280;17297;54.022;10.760;2023-05-07T01:42:59;102225.84;;;11.26;74.70
30516;BME280;17297;54.022;10.760;2023-05-07T01:45:25;102232.91;;;11.27;74.42
30516;BME280;17297;54.022;10.760;2023-05-07T01:47:51;102240.00;;;11.28;74.69
30516;BME280;17297;54.022;10.760;2023-05-07T01:50:19;102241.84;;;11.27;74.53
30516;BME280;17297;54.022;10.760;2023-05-07T01:52:45;102241.00;;;11.27;74.39
30516;BME280;17297;54.022;10.760;2023-05-07T01:55:12;102239.31;;;11.26;74.42
30516;BME280;17297;54.022;10.760;2023-05-07T01:57:37;102247.41;;;11.26;74.22
30516;BME280;17297;54.022;10.760;2023-05-07T02:00:04;102244.72;;;11.26;74.42
30516;BME280;17297;54.022;10.760;2023-05-07T02:02:40;102244.53;;;11.27;74.27
30516;BME280;17297;54.022;10.760;2023-05-07T02:05:09;102253.47;;;11.28;74.34
30516;BME280;17297;54.022;10.760;2023-05-07T02:07:36;102249.78;;;11.29;74.04
30516;BME280;17297;54.022;10.760;2023-05-07T02:10:02;102247.06;;;11.29;74.23
30516;BME280;17297;54.022;10.760;2023-05-07T02:12:28;102241.00;;;11.27;74.01
30516;BME280;17297;54.022;10.760;2023-05-07T02:14:53;102244.38;;;11.29;74.14
30516;BME280;17297;54.022;10.760;2023-05-07T02:17:19;102251.31;;;11.31;74.03
30516;BME280;17297;54.022;10.760;2023-05-07T02:19:44;102256.00;;;11.29;73.95
30516;BME280;17297;54.022;10.760;2023-05-07T02:22:10;102258.69;;;11.29;74.11
30516;BME280;17297;54.022;10.760;2023-05-07T02:24:35;102256.00;;;11.29;74.15
30516;BME280;17297;54.022;10.760;2023-05-07T02:27:01;102255.16;;;11.29;74.07
30516;BME280;17297;54.022;10.760;2023-05-07T02:29:27;102255.31;;;11.27;74.08
30516;BME280;17297;54.022;10.760;2023-05-07T02:31:53;102253.63;;;11.26;74.28
30516;BME280;17297;54.022;10.760;2023-05-07T02:34:18;102258.00;;;11.27;74.21
30516;BME280;17297;54.022;10.760;2023-05-07T02:36:44;102260.88;;;11.26;74.03
30516;BME280;17297;54.022;10.760;2023-05-07T02:39:13;102259.84;;;11.27;74.25
30516;BME280;17297;54.022;10.760;2023-05-07T02:41:38;102252.09;;;11.24;74.09
30516;BME280;17297;54.022;10.760;2023-05-07T02:44:04;102262.88;;;11.24;74.13
30516;BME280;17297;54.022;10.760;2023-05-07T02:46:29;102266.56;;;11.23;74.27
30516;BME280;17297;54.022;10.760;2023-05-07T02:49:00;102269.28;;;11.23;74.10
30516;BME280;17297;54.022;10.760;2023-05-07T02:51:26;102259.50;;;11.22;73.99
30516;BME280;17297;54.022;10.760;2023-05-07T02:53:54;102261.19;;;11.23;74.02
30516;BME280;17297;54.022;10.760;2023-05-07T02:56:20;102267.59;;;11.22;74.02
30516;BME280;17297;54.022;10.760;2023-05-07T02:58:46;102266.56;;;11.23;74.06
30516;BME280;17297;54.022;10.760;2023-05-07T03:01:13;102272.09;;;11.21;73.97
30516;BME280;17297;54.022;10.760;2023-05-07T03:03:51;102264.19;;;11.20;74.09
30516;BME280;17297;54.022;10.760;2023-05-07T03:06:17;102264.19;;;11.20;74.04
30516;BME280;17297;54.022;10.760;2023-05-07T03:08:42;102256.25;;;11.18;74.03
30516;BME280;17297;54.022;10.760;2023-05-07T03:11:08;102257.97;;;11.19;73.99
30516;BME280;17297;54.022;10.760;2023-05-07T03:13:33;102267.91;;;11.19;73.92
30516;BME280;17297;54.022;10.760;2023-05-07T03:15:58;102255.44;;;11.18;73.71
30516;BME280;17297;54.022;10.760;2023-05-07T03:18:24;102259.13;;;11.17;73.99
30516;BME280;17297;54.022;10.760;2023-05-07T03:20:49;102260.16;;;11.16;74.00
30516;BME280;17297;54.022;10.760;2023-05-07T03:23:16;102260.16;;;11.16;74.10
30516;BME280;17297;54.022;10.760;2023-05-07T03:25:41;102267.34;;;11.15;74.05
30516;BME280;17297;54.022;10.760;2023-05-07T03:28:07;102269.91;;;11.17;74.12
30516;BME280;17297;54.022;10.760;2023-05-07T03:30:39;102260.16;;;11.16;74.10
30516;BME280;17297;54.022;10.760;2023-05-07T03:33:04;102268.06;;;11.17;74.03
30516;BME280;17297;54.022;10.760;2023-05-07T03:35:30;102269.06;;;11.16;74.00
30516;BME280;17297;54.022;10.760;2023-05-07T03:37:55;102266.38;;;11.16;74.00
30516;BME280;17297;54.022;10.760;2023-05-07T03:40:21;102271.75;;;11.16;74.05
30516;BME280;17297;54.022;10.760;2023-05-07T03:42:50;102275.28;;;11.17;73.85
30516;BME280;17297;54.022;10.760;2023-05-07T03:45:18;102276.84;;;11.19;74.04
30516;BME280;17297;54.022;10.760;2023-05-07T03:47:48;102275.13;;;11.18;73.92
30516;BME280;17297;54.022;10.760;2023-05-07T03:50:17;102271.59;;;11.18;73.99
30516;BME280;17297;54.022;10.760;2023-05-07T03:52:42;102274.28;;;11.18;73.81
30516;BME280;17297;54.022;10.760;2023-05-07T03:55:09;102271.75;;;11.16;74.00
30516;BME280;17297;54.022;10.760;2023-05-07T03:57:37;102278.69;;;11.19;73.83
30516;BME280;17297;54.022;10.760;2023-05-07T04:00:03;102273.44;;;11.17;73.80
30516;BME280;17297;54.022;10.760;2023-05-07T04:02:34;102272.75;;;11.15;73.67
30516;BME280;17297;54.022;10.760;2023-05-07T04:05:01;102277.28;;;11.15;73.86
30516;BME280;17297;54.022;10.760;2023-05-07T04:07:26;102275.44;;;11.15;73.83
30516;BME280;17297;54.022;10.760;2023-05-07T04:09:51;102280.16;;;11.13;73.82
30516;BME280;17297;54.022;10.760;2023-05-07T04:12:17;102277.28;;;11.15;73.69
30516;BME280;17297;54.022;10.760;2023-05-07T04:14:42;102275.44;;;11.15;73.59
30516;BME280;17297;54.022;10.760;2023-05-07T04:17:07;102288.91;;;11.15;73.49
30516;BME280;17297;54.022;10.760;2023-05-07T04:19:37;102288.91;;;11.15;73.51
30516;BME280;17297;54.022;10.760;2023-05-07T04:22:02;102282.53;;;11.16;73.67
30516;BME280;17297;54.022;10.760;2023-05-07T04:24:31;102280.50;;;11.18;73.69
30516;BME280;17297;54.022;10.760;2023-05-07T04:26:58;102298.06;;;11.22;73.68
30516;BME280;17297;54.022;10.760;2023-05-07T04:29:24;102292.81;;;11.21;73.42
30516;BME280;17297;54.022;10.760;2023-05-07T04:31:49;102299.59;;;11.25;73.49
30516;BME280;17297;54.022;10.760;2023-05-07T04:34:15;102298.72;;;11.24;73.50
30516;BME280;17297;54.022;10.760;2023-05-07T04:36:41;102297.88;;;11.24;73.56
30516;BME280;17297;54.022;10.760;2023-05-07T04:39:10;102288.81;;;11.25;73.36
30516;BME280;17297;54.022;10.760;2023-05-07T04:41:36;102295.72;;;11.27;73.44
30516;BME280;17297;54.022;10.760;2023-05-07T04:44:03;102302.13;;;11.26;73.39
30516;BME280;17297;54.022;10.760;2023-05-07T04:46:31;102298.41;;;11.27;73.49
30516;BME280;17297;54.022;10.760;2023-05-07T04:48:57;102302.81;;;11.28;73.34
30516;BME280;17297;54.022;10.760;2023-05-07T04:51:22;102312.44;;;11.31;73.40
30516;BME280;17297;54.022;10.760;2023-05-07T04:53:48;102313.41;;;11.30;73.43
30516;BME280;17297;54.022;10.760;2023-05-07T04:56:14;102308.88;;;11.30;73.13
30516;BME280;17297;54.022;10.760;2023-05-07T04:58:42;102314.25;;;11.30;73.39
30516;BME280;17297;54.022;10.760;2023-05-07T05:01:08;102316.81;;;11.32;73.43
30516;BME280;17297;54.022;10.760;2023-05-07T05:03:33;102319.50;;;11.32;73.19
30516;BME280;17297;54.022;10.760;2023-05-07T05:05:59;102322.34;;;11.30;73.15
30516;BME280;17297;54.022;10.760;2023-05-07T05:08:26;102317.81;;;11.31;73.40
30516;BME280;17297;54.022;10.760;2023-05-07T05:10:52;102323.34;;;11.29;73.29
30516;BME280;17297;54.022;10.760;2023-05-07T05:13:17;102331.28;;;11.31;73.16
30516;BME280;17297;54.022;10.760;2023-05-07T05:15:43;102326.88;;;11.30;73.13
30516;BME280;17297;54.022;10.760;2023-05-07T05:18:09;102328.59;;;11.31;73.39
30516;BME280;17297;54.022;10.760;2023-05-07T05:20:34;102325.72;;;11.32;73.45
30516;BME280;17297;54.022;10.760;2023-05-07T05:23:00;102317.66;;;11.32;73.32
30516;BME280;17297;54.022;10.760;2023-05-07T05:25:25;102328.41;;;11.32;73.17
30516;BME280;17297;54.022;10.760;2023-05-07T05:27:51;102335.50;;;11.33;73.19
30516;BME280;17297;54.022;10.760;2023-05-07T05:30:17;102327.25;;;11.35;73.39
30516;BME280;17297;54.022;10.760;2023-05-07T05:32:45;102333.34;;;11.37;73.41
30516;BME280;17297;54.022;10.760;2023-05-07T05:35:10;102343.09;;;11.38;73.20
30516;BME280;17297;54.022;10.760;2023-05-07T05:37:35;102344.78;;;11.39;73.15
30516;BME280;17297;54.022;10.760;2023-05-07T05:40:03;102341.13;;;11.40;73.19
30516;BME280;17297;54.022;10.760;2023-05-07T05:42:29;102348.19;;;11.41;73.13
30516;BME280;17297;54.022;10.760;2023-05-07T05:44:55;102342.78;;;11.41;73.19
30516;BME280;17297;54.022;10.760;2023-05-07T05:47:22;102338.94;;;11.44;73.20
30516;BME280;17297;54.022;10.760;2023-05-07T05:49:47;102338.94;;;11.44;73.05
30516;BME280;17297;54.022;10.760;2023-05-07T05:52:14;102343.31;;;11.45;73.00
30516;BME280;17297;54.022;10.760;2023-05-07T05:54:40;102347.53;;;11.47;72.99
30516;BME280;17297;54.022;10.760;2023-05-07T05:57:05;102343.84;;;11.48;72.92
30516;BME280;17297;54.022;10.760;2023-05-07T05:59:31;102350.06;;;11.49;73.18
30516;BME280;17297;54.022;10.760;2023-05-07T06:01:56;102353.44;;;11.51;72.98
30516;BME280;17297;54.022;10.760;2023-05-07T06:04:22;102355.97;;;11.52;72.97
30516;BME280;17297;54.022;10.760;2023-05-07T06:06:48;102352.13;;;11.55;72.83
30516;BME280;17297;54.022;10.760;2023-05-07T06:09:14;102351.66;;;11.60;72.69
30516;BME280;17297;54.022;10.760;2023-05-07T06:11:42;102345.09;;;11.62;72.66
30516;BME280;17297;54.022;10.760;2023-05-07T06:14:08;102346.47;;;11.66;72.39
30516;BME280;17297;54.022;10.760;2023-05-07T06:16:34;102350.50;;;11.70;72.24
30516;BME280;17297;54.022;10.760;2023-05-07T06:19:00;102348.19;;;11.75;72.07
30516;BME280;17297;54.022;10.760;2023-05-07T06:21:25;102357.81;;;11.78;71.76
30516;BME280;17297;54.022;10.760;2023-05-07T06:23:50;102358.31;;;11.82;71.85
30516;BME280;17297;54.022;10.760;2023-05-07T06:26:17;102357.16;;;11.84;71.73
30516;BME280;17297;54.022;10.760;2023-05-07T06:28:45;102355.84;;;11.88;71.65
30516;BME280;17297;54.022;10.760;2023-05-07T06:31:17;102357.38;;;11.91;71.28
30516;BME280;17297;54.022;10.760;2023-05-07T06:33:49;102355.00;;;11.88;70.42
30516;BME280;17297;54.022;10.760;2023-05-07T06:36:15;102364.09;;;11.87;69.94
30516;BME280;17297;54.022;10.760;2023-05-07T06:38:41;102359.72;;;11.86;70.08
30516;BME280;17297;54.022;10.760;2023-05-07T06:41:06;102355.84;;;11.88;70.08
30516;BME280;17297;54.022;10.760;2023-05-07T06:43:32;102358.38;;;11.90;70.08
30516;BME280;17297;54.022;10.760;2023-05-07T06:46:18;102358.91;;;11.93;69.81
30516;BME280;17297;54.022;10.760;2023-05-07T06:48:43;102354.38;;;11.94;69.91
30516;BME280;17297;54.022;10.760;2023-05-07T06:51:08;102359.56;;;11.95;69.90
30516;BME280;17297;54.022;10.760;2023-05-07T06:53:35;102352.00;;;11.99;69.91
30516;BME280;17297;54.022;10.760;2023-05-07T06:56:01;102346.28;;;12.02;69.87
30516;BME280;17297;54.022;10.760;2023-05-07T06:58:26;102353.06;;;12.06;70.03
30516;BME280;17297;54.022;10.760;2023-05-07T07:00:52;102363.34;;;12.11;69.86
30516;BME280;17297;54.022;10.760;2023-05-07T07:03:18;102363.00;;;12.14;70.12
30516;BME280;17297;54.022;10.760;2023-05-07T07:05:44;102362.53;;;12.18;70.18
30516;BME280;17297;54.022;10.760;2023-05-07T07:08:10;102365.75;;;12.22;70.44
30516;BME280;17297;54.022;10.760;2023-05-07T07:10:35;102369.97;;;12.24;70.25
30516;BME280;17297;54.022;10.760;2023-05-07T07:13:02;102360.88;;;12.25;69.99
30516;BME280;17297;54.022;10.760;2023-05-07T07:15:27;102364.41;;;12.26;70.19
30516;BME280;17297;54.022;10.760;2023-05-07T07:17:54;102372.34;;;12.28;70.11
30516;BME280;17297;54.022;10.760;2023-05-07T07:20:21;102371.69;;;12.34;70.24
30516;BME280;17297;54.022;10.760;2023-05-07T07:22:47;102366.44;;;12.32;69.98
30516;BME280;17297;54.022;10.760;2023-05-07T07:25:14;102370.16;;;12.31;69.82
30516;BME280;17297;54.022;10.760;2023-05-07T07:27:40;102372.03;;;12.31;69.76
30516;BME280;17297;54.022;10.760;2023-05-07T07:30:06;102353.63;;;12.34;69.86
30516;BME280;17297;54.022;10.760;2023-05-07T07:32:35;102368.47;;;12.38;69.67
30516;BME280;17297;54.022;10.760;2023-05-07T07:35:00;102355.50;;;12.42;69.39
30516;BME280;17297;54.022;10.760;2023-05-07T07:37:27;102363.25;;;12.45;69.38
30516;BME280;17297;54.022;10.760;2023-05-07T07:39:52;102366.66;;;12.47;69.30
30516;BME280;17297;54.022;10.760;2023-05-07T07:42:18;102366.47;;;12.48;69.26
30516;BME280;17297;54.022;10.760;2023-05-07T07:44:44;102361.75;;;12.51;69.15
30516;BME280;17297;54.022;10.760;2023-05-07T07:47:11;102363.44;;;12.52;69.18
30516;BME280;17297;54.022;10.760;2023-05-07T07:49:37;102368.50;;;12.55;69.30
30516;BME280;17297;54.022;10.760;2023-05-07T07:52:05;102361.25;;;12.55;69.18
30516;BME280;17297;54.022;10.760;2023-05-07T07:54:33;102371.88;;;12.57;69.44
30516;BME280;17297;54.022;10.760;2023-05-07T07:56:58;102371.69;;;12.58;69.34
30516;BME280;17297;54.022;10.760;2023-05-07T07:59:24;102369.00;;;12.58;69.14
30516;BME280;17297;54.022;10.760;2023-05-07T08:01:49;102359.06;;;12.59;69.14
30516;BME280;17297;54.022;10.760;2023-05-07T08:04:17;102373.22;;;12.61;69.14
30516;BME280;17297;54.022;10.760;2023-05-07T08:06:43;102375.78;;;12.62;69.20
30516;BME280;17297;54.022;10.760;2023-05-07T08:09:09;102373.41;;;12.67;69.33
30516;BME280;17297;54.022;10.760;2023-05-07T08:11:36;102363.97;;;12.71;69.11
30516;BME280;17297;54.022;10.760;2023-05-07T08:14:02;102360.75;;;12.76;68.92
30516;BME280;17297;54.022;10.760;2023-05-07T08:16:28;102362.28;;;12.79;68.70
30516;BME280;17297;54.022;10.760;2023-05-07T08:18:54;102364.31;;;12.85;68.72
30516;BME280;17297;54.022;10.760;2023-05-07T08:21:19;102365.50;;;12.90;68.47
30516;BME280;17297;54.022;10.760;2023-05-07T08:23:45;102364.13;;;12.94;68.49
30516;BME280;17297;54.022;10.760;2023-05-07T08:26:11;102364.63;;;12.98;68.23
30516;BME280;17297;54.022;10.760;2023-05-07T08:28:36;102360.59;;;13.02;68.00
30516;BME280;17297;54.022;10.760;2023-05-07T08:31:02;102357.38;;;13.07;67.95
30516;BME280;17297;54.022;10.760;2023-05-07T08:33:31;102350.47;;;13.12;67.75
30516;BME280;17297;54.022;10.760;2023-05-07T08:35:57;102356.00;;;13.19;67.49
30516;BME280;17297;54.022;10.760;2023-05-07T08:38:22;102356.69;;;13.29;67.77
30516;BME280;17297;54.022;10.760;2023-05-07T08:40:48;102357.53;;;13.38;67.47
30516;BME280;17297;54.022;10.760;2023-05-07T08:43:18;102353.13;;;13.45;67.59
30516;BME280;17297;54.022;10.760;2023-05-07T08:45:45;102371.50;;;13.58;67.64
30516;BME280;17297;54.022;10.760;2023-05-07T08:48:16;102366.75;;;13.68;67.08
30516;BME280;17297;54.022;10.760;2023-05-07T08:50:44;102357.94;;;13.74;66.54
30516;BME280;17297;54.022;10.760;2023-05-07T08:53:10;102356.56;;;13.78;66.48
30516;BME280;17297;54.022;10.760;2023-05-07T08:55:36;102359.25;;;13.86;66.41
30516;BME280;17297;54.022;10.760;2023-05-07T08:58:01;102356.69;;;13.93;66.33
30516;BME280;17297;54.022;10.760;2023-05-07T09:00:28;102361.03;;;14.02;66.33
30516;BME280;17297;54.022;10.760;2023-05-07T09:02:55;102368.75;;;14.14;66.28
30516;BME280;17297;54.022;10.760;2023-05-07T09:05:22;102359.25;;;14.18;65.61
30516;BME280;17297;54.022;10.760;2023-05-07T09:07:47;102362.25;;;14.23;65.39
30516;BME280;17297;54.022;10.760;2023-05-07T09:10:14;102356.31;;;14.27;65.38
30516;BME280;17297;54.022;10.760;2023-05-07T09:12:41;102356.81;;;14.31;65.15
30516;BME280;17297;54.022;10.760;2023-05-07T09:15:08;102359.84;;;14.36;65.08
30516;BME280;17297;54.022;10.760;2023-05-07T09:17:34;102372.50;;;14.36;64.33
30516;BME280;17297;54.022;10.760;2023-05-07T09:20:05;102366.56;;;14.40;64.60
30516;BME280;17297;54.022;10.760;2023-05-07T09:22:32;102371.28;;;14.46;64.34
30516;BME280;17297;54.022;10.760;2023-05-07T09:25:02;102377.00;;;14.51;64.46
30516;BME280;17297;54.022;10.760;2023-05-07T09:27:29;102373.09;;;14.54;64.12
30516;BME280;17297;54.022;10.760;2023-05-07T09:29:58;102368.16;;;14.58;64.10
30516;BME280;17297;54.022;10.760;2023-05-07T09:32:24;102372.03;;;14.63;64.07
30516;BME280;17297;54.022;10.760;2023-05-07T09:34:50;102372.50;;;14.67;63.98
30516;BME280;17297;54.022;10.760;2023-05-07T09:37:19;102372.50;;;14.67;63.79
30516;BME280;17297;54.022;10.760;2023-05-07T09:39:47;102361.50;;;14.68;63.52
30516;BME280;17297;54.022;10.760;2023-05-07T09:42:14;102359.97;;;14.66;63.48
30516;BME280;17297;54.022;10.760;2023-05-07T09:44:41;102366.91;;;14.68;63.77
30516;BME280;17297;54.022;10.760;2023-05-07T09:47:18;102368.91;;;14.74;63.98
30516;BME280;17297;54.022;10.760;2023-05-07T09:49:46;102363.41;;;14.83;63.86
30516;BME280;17297;54.022;10.760;2023-05-07T09:52:14;102359.78;;;14.90;64.13
30516;BME280;17297;54.022;10.760;2023-05-07T09:54:46;102362.44;;;14.98;64.18
30516;BME280;17297;54.022;10.760;2023-05-07T09:57:15;102362.53;;;15.05;64.06
30516;BME280;17297;54.022;10.760;2023-05-07T09:59:43;102364.31;;;15.13;64.46
30516;BME280;17297;54.022;10.760;2023-05-07T10:02:13;102361.63;;;15.13;64.10
30516;BME280;17297;54.022;10.760;2023-05-07T10:04:46;102361.97;;;15.10;63.04
30516;BME280;17297;54.022;10.760;2023-05-07T10:07:13;102358.75;;;15.14;63.11
30516;BME280;17297;54.022;10.760;2023-05-07T10:09:39;102355.47;;;15.19;63.05
30516;BME280;17297;54.022;10.760;2023-05-07T10:12:11;102354.34;;;15.28;62.93
30516;BME280;17297;54.022;10.760;2023-05-07T10:14:38;102354.44;;;15.35;62.37
30516;BME280;17297;54.022;10.760;2023-05-07T10:17:04;102354.91;;;15.38;61.70
30516;BME280;17297;54.022;10.760;2023-05-07T10:19:32;102359.50;;;15.38;61.67
30516;BME280;17297;54.022;10.760;2023-05-07T10:22:02;102349.50;;;15.38;61.41
30516;BME280;17297;54.022;10.760;2023-05-07T10:24:33;102356.41;;;15.41;61.53
30516;BME280;17297;54.022;10.760;2023-05-07T10:27:12;102362.13;;;15.46;60.96
30516;BME280;17297;54.022;10.760;2023-05-07T10:29:58;102361.09;;;15.47;60.93
30516;BME280;17297;54.022;10.760;2023-05-07T10:32:39;102358.75;;;15.44;61.00
30516;BME280;17297;54.022;10.760;2023-05-07T10:35:26;102361.84;;;15.41;61.04
30516;BME280;17297;54.022;10.760;2023-05-07T10:37:54;102357.09;;;15.43;60.87
30516;BME280;17297;54.022;10.760;2023-05-07T10:40:21;102356.34;;;15.49;61.27
30516;BME280;17297;54.022;10.760;2023-05-07T10:42:58;102364.38;;;15.57;61.41
30516;BME280;17297;54.022;10.760;2023-05-07T10:45:31;102362.78;;;15.63;61.07
30516;BME280;17297;54.022;10.760;2023-05-07T10:48:15;102359.59;;;15.59;60.89
30516;BME280;17297;54.022;10.760;2023-05-07T10:50:45;102361.47;;;15.59;60.86
30516;BME280;17297;54.022;10.760;2023-05-07T10:55:48;102368.88;;;15.50;61.16
30516;BME280;17297;54.022;10.760;2023-05-07T11:00:50;102361.19;;;15.54;61.04
30516;BME280;17297;54.022;10.760;2023-05-07T11:03:24;102362.69;;;15.56;60.86
30516;BME280;17297;54.022;10.760;2023-05-07T11:06:12;102351.84;;;15.56;60.39
30516;BME280;17297;54.022;10.760;2023-05-07T11:11:17;102345.00;;;15.60;59.52
30516;BME280;17297;54.022;10.760;2023-05-07T11:13:48;102354.25;;;15.66;59.89
30516;BME280;17297;54.022;10.760;2023-05-07T11:16:27;102351.88;;;15.71;59.93
30516;BME280;17297;54.022;10.760;2023-05-07T11:19:50;102343.38;;;15.74;60.18
30516;BME280;17297;54.022;10.760;2023-05-07T11:25:10;102346.81;;;15.68;60.11
30516;BME280;17297;54.022;10.760;2023-05-07T11:27:36;102352.50;;;15.58;60.50
30516;BME280;17297;54.022;10.760;2023-05-07T11:30:01;102356.13;;;15.51;61.08
30516;BME280;17297;54.022;10.760;2023-05-07T11:32:29;102342.50;;;15.44;60.93
30516;BME280;17297;54.022;10.760;2023-05-07T11:34:56;102339.97;;;15.42;60.83
30516;BME280;17297;54.022;10.760;2023-05-07T11:37:23;102345.41;;;15.42;60.72
30516;BME280;17297;54.022;10.760;2023-05-07T11:40:04;102339.78;;;15.44;60.80
30516;BME280;17297;54.022;10.760;2023-05-07T11:42:32;102340.44;;;15.46;60.52
30516;BME280;17297;54.022;10.760;2023-05-07T11:44:58;102348.56;;;15.46;60.46
30516;BME280;17297;54.022;10.760;2023-05-07T11:47:23;102340.59;;;15.44;60.33
30516;BME280;17297;54.022;10.760;2023-05-07T11:49:54;102341.44;;;15.45;60.48
30516;BME280;17297;54.022;10.760;2023-05-07T11:52:22;102344.00;;;15.46;60.64
30516;BME280;17297;54.022;10.760;2023-05-07T11:54:51;102338.38;;;15.48;60.62
30516;BME280;17297;54.022;10.760;2023-05-07T11:57:17;102339.88;;;15.51;60.70
30516;BME280;17297;54.022;10.760;2023-05-07T11:59:46;102343.63;;;15.50;60.76
30516;BME280;17297;54.022;10.760;2023-05-07T12:02:15;102348.84;;;15.51;60.78
30516;BME280;17297;54.022;10.760;2023-05-07T12:04:41;102347.81;;;15.52;60.30
30516;BME280;17297;54.022;10.760;2023-05-07T12:07:13;102344.06;;;15.53;59.99
30516;BME280;17297;54.022;10.760;2023-05-07T12:09:40;102348.28;;;15.56;60.21
30516;BME280;17297;54.022;10.760;2023-05-07T12:12:06;102342.88;;;15.56;60.21
30516;BME280;17297;54.022;10.760;2023-05-07T12:14:31;102347.25;;;15.57;60.62
30516;BME280;17297;54.022;10.760;2023-05-07T12:16:58;102337.91;;;15.59;60.53
30516;BME280;17297;54.022;10.760;2023-05-07T12:19:24;102335.13;;;15.67;60.70
30516;BME280;17297;54.022;10.760;2023-05-07T12:21:50;102343.63;;;15.79;60.50
30516;BME280;17297;54.022;10.760;2023-05-07T12:24:16;102334.56;;;15.87;59.38
30516;BME280;17297;54.022;10.760;2023-05-07T12:26:41;102342.22;;;15.98;58.85
30516;BME280;17297;54.022;10.760;2023-05-07T12:29:07;102340.03;;;16.08;58.70
30516;BME280;17297;54.022;10.760;2023-05-07T12:31:32;102345.16;;;16.18;58.85
30516;BME280;17297;54.022;10.760;2023-05-07T12:33:58;102338.69;;;16.19;58.84
30516;BME280;17297;54.022;10.760;2023-05-07T12:36:23;102337.00;;;16.18;58.90
30516;BME280;17297;54.022;10.760;2023-05-07T12:38:50;102337.06;;;16.25;58.74
30516;BME280;17297;54.022;10.760;2023-05-07T12:41:15;102336.97;;;16.33;58.60
30516;BME280;17297;54.022;10.760;2023-05-07T12:43:44;102338.63;;;16.34;58.81
30516;BME280;17297;54.022;10.760;2023-05-07T12:46:11;102334.44;;;16.31;58.44
30516;BME280;17297;54.022;10.760;2023-05-07T12:48:43;102334.34;;;16.25;58.19
30516;BME280;17297;54.022;10.760;2023-05-07T12:51:10;102332.13;;;16.13;58.14